createdAt,value
2023-12-09T00:02:19.724Z,14.87
2023-12-09T00:04:46.554Z,14.00
2023-12-09T00:07:13.513Z,18.47
2023-12-09T00:09:40.391Z,18.53
2023-12-09T00:12:07.503Z,13.93
2023-12-09T00:14:34.364Z,17.23
2023-12-09T00:17:01.273Z,13.67
2023-12-09T00:19:28.297Z,16.90
2023-12-09T00:21:55.212Z,12.60
2023-12-09T00:24:23.434Z,15.10
2023-12-09T00:26:50.766Z,16.67
2023-12-09T00:29:17.626Z,17.43
2023-12-09T00:31:44.479Z,13.40
2023-12-09T00:34:11.425Z,11.70
2023-12-09T00:36:40.684Z,15.17
2023-12-09T00:39:07.594Z,13.80
2023-12-09T00:41:34.439Z,19.00
2023-12-09T00:44:01.266Z,13.30
2023-12-09T00:46:28.198Z,15.97
2023-12-09T00:48:55.291Z,20.97
2023-12-09T00:51:22.317Z,14.97
2023-12-09T00:53:49.174Z,15.27
2023-12-09T00:56:16.039Z,15.83
2023-12-09T00:58:59.947Z,13.17
2023-12-09T01:01:26.877Z,15.07
2023-12-09T01:03:53.854Z,18.00
2023-12-09T01:06:20.931Z,13.83
2023-12-09T01:08:47.814Z,12.47
2023-12-09T01:11:14.620Z,13.23
2023-12-09T01:13:41.480Z,12.80
2023-12-09T01:16:08.827Z,13.20
2023-12-09T01:18:35.920Z,10.10
2023-12-09T01:21:03.002Z,14.20
2023-12-09T01:23:29.924Z,10.77
2023-12-09T01:25:56.857Z,11.80
2023-12-09T01:28:23.726Z,15.33
2023-12-09T01:30:50.597Z,10.47
2023-12-09T01:33:17.519Z,10.53
2023-12-09T01:35:44.473Z,16.80
2023-12-09T01:38:11.310Z,14.90
2023-12-09T01:40:38.146Z,15.57
2023-12-09T01:43:10.448Z,14.13
2023-12-09T01:45:37.484Z,11.57
2023-12-09T01:48:05.749Z,11.03
2023-12-09T01:50:33.096Z,12.57
2023-12-09T01:53:00.098Z,12.67
2023-12-09T01:55:27.302Z,12.50
2023-12-09T01:57:54.453Z,13.30
2023-12-09T02:00:22.436Z,11.20
2023-12-09T02:02:49.884Z,10.53
2023-12-09T02:05:16.970Z,10.47
2023-12-09T02:07:44.153Z,12.67
2023-12-09T02:10:12.561Z,10.67
2023-12-09T02:12:53.069Z,10.90
2023-12-09T02:15:25.740Z,11.30
2023-12-09T02:18:03.200Z,8.80
2023-12-09T02:20:31.095Z,9.40
2023-12-09T02:23:08.599Z,16.67
2023-12-09T02:25:36.554Z,9.57
2023-12-09T02:28:27.606Z,9.17
2023-12-09T02:30:57.279Z,12.50
2023-12-09T02:33:25.841Z,13.33
2023-12-09T02:35:54.642Z,9.33
2023-12-09T02:38:22.645Z,10.73
2023-12-09T02:40:50.635Z,11.23
2023-12-09T02:43:18.050Z,9.33
2023-12-09T02:45:47.835Z,7.20
2023-12-09T02:48:15.010Z,9.33
2023-12-09T02:50:42.340Z,10.37
2023-12-09T02:53:09.229Z,10.27
2023-12-09T02:55:36.150Z,8.37
2023-12-09T02:58:02.992Z,9.90
2023-12-09T03:00:30.098Z,8.80
2023-12-09T03:02:57.129Z,12.70
2023-12-09T03:05:24.121Z,8.53
2023-12-09T03:07:51.049Z,6.37
2023-12-09T03:10:18.152Z,8.50
2023-12-09T03:12:45.561Z,10.50
2023-12-09T03:15:12.469Z,9.60
2023-12-09T03:17:40.563Z,8.63
2023-12-09T03:20:10.675Z,12.97
2023-12-09T03:22:37.590Z,9.93
2023-12-09T03:25:05.164Z,9.40
2023-12-09T03:27:32.098Z,9.63
2023-12-09T03:29:59.020Z,9.80
2023-12-09T03:32:26.150Z,12.83
2023-12-09T03:34:53.141Z,10.87
2023-12-09T03:37:20.429Z,10.43
2023-12-09T03:39:47.306Z,10.10
2023-12-09T03:42:14.209Z,9.93
2023-12-09T03:44:41.149Z,10.00
2023-12-09T03:47:14.912Z,12.30
2023-12-09T03:49:49.083Z,10.57
2023-12-09T03:52:18.652Z,8.63
2023-12-09T03:54:46.071Z,9.00
2023-12-09T03:57:14.644Z,8.30
2023-12-09T03:59:41.875Z,7.20
2023-12-09T04:02:08.909Z,9.13
2023-12-09T04:04:40.208Z,10.40
2023-12-09T04:07:07.313Z,10.67
2023-12-09T04:09:34.266Z,8.13
2023-12-09T04:12:01.624Z,8.40
2023-12-09T04:14:28.570Z,10.43
2023-12-09T04:16:55.864Z,10.53
2023-12-09T04:19:22.991Z,7.67
2023-12-09T04:21:49.978Z,9.40
2023-12-09T04:24:16.942Z,7.90
2023-12-09T04:26:44.081Z,7.13
2023-12-09T04:29:11.100Z,9.00
2023-12-09T04:31:37.947Z,9.63
2023-12-09T04:34:04.851Z,9.67
2023-12-09T04:36:31.796Z,9.43
2023-12-09T04:38:58.692Z,12.03
2023-12-09T04:41:25.879Z,9.73
2023-12-09T04:43:52.747Z,10.60
2023-12-09T04:46:19.624Z,7.47
2023-12-09T04:48:46.590Z,10.87
2023-12-09T04:51:13.522Z,10.00
2023-12-09T04:53:41.533Z,7.10
2023-12-09T04:56:09.441Z,7.67
2023-12-09T04:58:36.311Z,6.80
2023-12-09T05:01:03.348Z,8.73
2023-12-09T05:03:31.523Z,8.03
2023-12-09T05:05:58.569Z,10.03
2023-12-09T05:08:25.522Z,9.40
2023-12-09T05:10:52.360Z,8.13
2023-12-09T05:13:19.241Z,7.23
2023-12-09T05:15:46.287Z,7.00
2023-12-09T05:18:13.416Z,7.93
2023-12-09T05:20:40.513Z,9.03
2023-12-09T05:23:09.451Z,7.33
2023-12-09T05:25:36.657Z,6.50
2023-12-09T05:28:03.693Z,7.10
2023-12-09T05:30:30.634Z,9.27
2023-12-09T05:32:58.990Z,9.00
2023-12-09T05:35:26.087Z,8.30
2023-12-09T05:37:53.043Z,8.53
2023-12-09T05:40:20.012Z,9.37
2023-12-09T05:42:47.622Z,9.47
2023-12-09T05:45:14.681Z,8.47
2023-12-09T05:47:41.704Z,14.70
2023-12-09T05:50:10.810Z,8.10
2023-12-09T05:52:37.742Z,10.30
2023-12-09T05:55:05.052Z,8.97
2023-12-09T05:57:31.973Z,11.90
2023-12-09T05:59:59.496Z,9.87
2023-12-09T06:02:26.669Z,11.30
2023-12-09T06:04:53.696Z,9.37
2023-12-09T06:07:20.585Z,11.67
2023-12-09T06:09:47.501Z,13.17
2023-12-09T06:12:14.458Z,13.20
2023-12-09T06:14:43.337Z,12.43
2023-12-09T06:17:10.323Z,12.93
2023-12-09T06:19:37.308Z,17.50
2023-12-09T06:22:04.362Z,14.93
2023-12-09T06:24:31.266Z,14.07
2023-12-09T06:26:58.316Z,13.70
2023-12-09T06:29:25.304Z,15.43
2023-12-09T06:31:52.154Z,18.43
2023-12-09T06:34:19.151Z,15.17
2023-12-09T06:36:46.081Z,16.00
2023-12-09T06:39:13.051Z,14.80
2023-12-09T06:41:40.924Z,15.33
2023-12-09T06:44:07.925Z,17.60
2023-12-09T06:46:39.148Z,17.80
2023-12-09T06:49:07.050Z,15.53
2023-12-09T06:51:34.661Z,18.13
2023-12-09T06:54:01.903Z,18.63
2023-12-09T06:56:28.840Z,18.53
2023-12-09T06:58:55.658Z,17.10
2023-12-09T07:01:29.382Z,17.37
2023-12-09T07:03:56.815Z,21.67
2023-12-09T07:06:24.439Z,22.97
2023-12-09T07:08:52.046Z,19.63
2023-12-09T07:11:19.467Z,17.93
2023-12-09T07:13:46.825Z,20.50
2023-12-09T07:16:14.372Z,20.80
2023-12-09T07:18:46.908Z,20.73
2023-12-09T07:21:14.580Z,17.47
2023-12-09T07:23:41.726Z,20.03
2023-12-09T07:26:08.579Z,20.80
2023-12-09T07:28:36.203Z,21.90
2023-12-09T07:31:03.949Z,19.10
2023-12-09T07:33:30.895Z,20.03
2023-12-09T07:35:57.835Z,17.93
2023-12-09T07:38:24.690Z,20.07
2023-12-09T07:40:52.341Z,17.73
2023-12-09T07:43:19.593Z,19.33
2023-12-09T07:45:46.524Z,16.20
2023-12-09T07:48:13.621Z,15.83
2023-12-09T07:50:40.759Z,15.17
2023-12-09T07:53:07.683Z,15.70
2023-12-09T07:55:34.594Z,11.73
2023-12-09T07:58:01.766Z,14.20
2023-12-09T08:00:28.852Z,17.33
2023-12-09T08:02:56.076Z,17.63
2023-12-09T08:05:24.886Z,12.80
2023-12-09T08:07:54.708Z,12.67
2023-12-09T08:10:21.551Z,8.80
2023-12-09T08:12:48.510Z,11.17
2023-12-09T08:15:15.503Z,13.40
2023-12-09T08:17:42.427Z,9.17
2023-12-09T08:20:10.380Z,12.87
2023-12-09T08:22:39.992Z,9.10
2023-12-09T08:25:14.086Z,9.10
2023-12-09T08:27:41.086Z,7.57
2023-12-09T08:30:12.148Z,7.50
2023-12-09T08:32:42.700Z,7.60
2023-12-09T08:35:12.245Z,7.37
2023-12-09T08:37:39.771Z,6.10
2023-12-09T08:40:11.819Z,8.63
2023-12-09T08:42:43.619Z,10.47
2023-12-09T08:45:16.379Z,4.50
2023-12-09T08:47:45.568Z,7.00
2023-12-09T08:50:22.038Z,4.97
2023-12-09T08:52:53.241Z,5.70
2023-12-09T08:55:20.313Z,4.90
2023-12-09T08:57:47.520Z,6.03
2023-12-09T09:00:17.277Z,4.33
2023-12-09T09:02:44.318Z,5.37
2023-12-09T09:05:11.475Z,4.07
2023-12-09T09:07:41.443Z,3.20
2023-12-09T09:10:09.308Z,5.10
2023-12-09T09:12:36.363Z,4.00
2023-12-09T09:15:07.085Z,5.27
2023-12-09T09:17:38.525Z,3.87
2023-12-09T09:20:06.744Z,3.23
2023-12-09T09:22:34.542Z,5.80
2023-12-09T09:25:02.178Z,3.63
2023-12-09T09:27:29.543Z,3.33
2023-12-09T09:29:56.895Z,4.67
2023-12-09T09:32:24.455Z,3.63
2023-12-09T09:34:51.780Z,5.53
2023-12-09T09:37:18.839Z,2.50
2023-12-09T09:39:45.854Z,5.40
2023-12-09T09:42:35.763Z,2.73
2023-12-09T09:45:24.362Z,3.03
2023-12-09T09:47:56.212Z,3.00
2023-12-09T09:50:27.656Z,4.13
2023-12-09T09:52:55.122Z,2.87
2023-12-09T09:55:26.516Z,3.77
2023-12-09T09:57:54.124Z,5.53
2023-12-09T10:00:22.861Z,4.70
2023-12-09T10:02:56.468Z,10.13
2023-12-09T10:05:24.679Z,3.87
2023-12-09T10:07:53.192Z,4.13
2023-12-09T10:10:20.090Z,4.50
2023-12-09T10:12:47.111Z,4.30
2023-12-09T10:15:14.207Z,6.53
2023-12-09T10:17:41.880Z,4.80
2023-12-09T10:20:10.455Z,5.10
2023-12-09T10:22:39.164Z,5.37
2023-12-09T10:25:06.561Z,6.63
2023-12-09T10:27:34.387Z,5.50
2023-12-09T10:30:02.098Z,5.80
2023-12-09T10:32:29.729Z,8.23
2023-12-09T10:34:57.472Z,6.30
2023-12-09T10:37:25.077Z,4.60
2023-12-09T10:39:53.068Z,5.73
2023-12-09T10:42:20.297Z,4.27
2023-12-09T10:44:48.658Z,6.30
2023-12-09T10:47:15.530Z,5.87
2023-12-09T10:49:42.495Z,7.23
2023-12-09T10:52:09.474Z,7.87
2023-12-09T10:54:36.340Z,8.87
2023-12-09T10:57:04.489Z,6.37
2023-12-09T10:59:33.569Z,8.27
2023-12-09T11:02:01.430Z,9.63
2023-12-09T11:04:29.407Z,5.67
2023-12-09T11:07:03.259Z,6.87
2023-12-09T11:09:33.913Z,4.93
2023-12-09T11:12:01.065Z,4.77
2023-12-09T11:14:28.764Z,7.07
2023-12-09T11:17:03.049Z,5.77
2023-12-09T11:19:30.693Z,7.33
2023-12-09T11:21:57.657Z,7.03
2023-12-09T11:24:31.647Z,4.97
2023-12-09T11:26:59.098Z,5.20
2023-12-09T11:29:26.531Z,4.53
2023-12-09T11:31:54.632Z,3.87
2023-12-09T11:34:25.142Z,3.33
2023-12-09T11:36:53.880Z,5.63
2023-12-09T11:39:23.430Z,4.73
2023-12-09T11:41:51.308Z,4.07
2023-12-09T11:44:18.411Z,4.60
2023-12-09T11:46:47.704Z,7.53
2023-12-09T11:49:15.322Z,4.40
2023-12-09T11:51:42.401Z,3.77
2023-12-09T11:54:10.774Z,3.33
2023-12-09T11:56:39.265Z,4.33
2023-12-09T11:59:06.920Z,5.43
2023-12-09T12:01:35.111Z,5.37
2023-12-09T12:04:02.406Z,5.53
2023-12-09T12:06:29.613Z,5.17
2023-12-09T12:08:56.855Z,6.33
2023-12-09T12:11:25.218Z,5.80
2023-12-09T12:13:53.651Z,5.73
2023-12-09T12:16:21.492Z,4.90
2023-12-09T12:18:49.519Z,7.13
2023-12-09T12:21:17.312Z,6.47
2023-12-09T12:23:44.605Z,4.13
2023-12-09T12:26:14.128Z,4.60
2023-12-09T12:28:41.278Z,3.30
2023-12-09T12:31:12.597Z,4.23
2023-12-09T12:33:41.133Z,4.70
2023-12-09T12:36:09.391Z,3.70
2023-12-09T12:38:36.588Z,3.43
2023-12-09T12:41:03.986Z,3.70
2023-12-09T12:43:32.667Z,6.97
2023-12-09T12:46:01.223Z,3.57
2023-12-09T12:48:29.084Z,4.67
2023-12-09T12:50:56.786Z,4.93
2023-12-09T12:53:26.189Z,3.80
2023-12-09T12:55:55.905Z,6.43
2023-12-09T12:58:23.959Z,4.60
2023-12-09T13:00:53.287Z,8.57
2023-12-09T13:03:20.578Z,5.37
2023-12-09T13:05:48.074Z,5.63
2023-12-09T13:08:15.079Z,4.60
2023-12-09T13:10:42.018Z,4.17
2023-12-09T13:13:08.948Z,9.00
2023-12-09T13:15:35.972Z,4.30
2023-12-09T13:18:03.256Z,5.20
2023-12-09T13:20:30.638Z,6.70
2023-12-09T13:22:58.178Z,7.43
2023-12-09T13:25:25.183Z,5.60
2023-12-09T13:27:52.231Z,5.70
2023-12-09T13:30:19.381Z,7.43
2023-12-09T13:32:47.011Z,5.27
2023-12-09T13:35:15.813Z,4.50
2023-12-09T13:37:44.164Z,5.60
2023-12-09T13:40:12.769Z,5.40
2023-12-09T13:42:40.209Z,7.33
2023-12-09T13:45:07.813Z,6.07
2023-12-09T13:47:34.937Z,5.53
2023-12-09T13:50:02.103Z,6.10
2023-12-09T13:52:31.945Z,4.50
2023-12-09T13:55:00.158Z,4.67
2023-12-09T13:57:27.328Z,5.10
2023-12-09T13:59:54.639Z,4.30
2023-12-09T14:02:21.706Z,4.93
2023-12-09T14:04:49.302Z,4.57
2023-12-09T14:07:16.755Z,6.53
2023-12-09T14:09:43.837Z,4.23
2023-12-09T14:12:11.134Z,5.80
2023-12-09T14:14:38.031Z,5.87
2023-12-09T14:17:06.427Z,3.63
2023-12-09T14:19:33.479Z,4.77
2023-12-09T14:22:00.505Z,5.33
2023-12-09T14:24:27.473Z,4.70
2023-12-09T14:26:54.738Z,4.43
2023-12-09T14:29:21.657Z,4.33
2023-12-09T14:31:48.551Z,7.50
2023-12-09T14:34:15.824Z,6.03
2023-12-09T14:36:44.095Z,3.83
2023-12-09T14:39:11.788Z,4.70
2023-12-09T14:41:41.008Z,3.83
2023-12-09T14:44:09.247Z,7.07
2023-12-09T14:46:36.763Z,4.33
2023-12-09T14:49:04.785Z,4.97
2023-12-09T14:51:40.779Z,4.53
2023-12-09T14:54:16.473Z,4.23
2023-12-09T14:56:48.216Z,5.73
2023-12-09T14:59:16.474Z,6.67
2023-12-09T15:01:43.498Z,4.83
2023-12-09T15:04:10.564Z,4.90
2023-12-09T15:06:37.696Z,3.80
2023-12-09T15:09:05.047Z,7.33
2023-12-09T15:11:31.997Z,6.07
2023-12-09T15:13:58.885Z,6.37
2023-12-09T15:16:26.035Z,4.90
2023-12-09T15:18:53.082Z,4.33
2023-12-09T15:21:21.035Z,6.90
2023-12-09T15:23:48.029Z,5.03
2023-12-09T15:26:15.333Z,5.97
2023-12-09T15:28:42.297Z,5.27
2023-12-09T15:31:09.262Z,5.33
2023-12-09T15:33:36.671Z,8.20
2023-12-09T15:36:04.326Z,5.47
2023-12-09T15:38:32.248Z,6.10
2023-12-09T15:40:59.134Z,6.17
2023-12-09T15:43:26.011Z,6.83
2023-12-09T15:45:55.979Z,3.73
2023-12-09T15:48:26.854Z,5.87
2023-12-09T15:50:54.045Z,5.73
2023-12-09T15:53:20.966Z,5.83
2023-12-09T15:55:48.208Z,4.10
2023-12-09T15:58:15.533Z,3.80
2023-12-09T16:00:42.740Z,4.13
2023-12-09T16:03:16.474Z,3.93
2023-12-09T16:05:44.063Z,4.27
2023-12-09T16:08:11.256Z,5.03
2023-12-09T16:10:38.155Z,7.23
2023-12-09T16:13:05.402Z,3.40
2023-12-09T16:15:32.482Z,5.73
2023-12-09T16:17:59.529Z,3.37
2023-12-09T16:20:26.702Z,3.33
2023-12-09T16:22:53.577Z,4.33
2023-12-09T16:25:20.570Z,3.63
2023-12-09T16:27:47.769Z,4.10
2023-12-09T16:30:15.216Z,3.40
2023-12-09T16:32:42.826Z,4.20
2023-12-09T16:35:10.278Z,9.03
2023-12-09T16:37:37.497Z,3.27
2023-12-09T16:40:05.000Z,5.60
2023-12-09T16:42:32.406Z,7.07
2023-12-09T16:44:59.984Z,4.37
2023-12-09T16:47:28.789Z,4.40
2023-12-09T16:49:55.755Z,7.33
2023-12-09T16:52:22.652Z,4.50
2023-12-09T16:54:49.576Z,4.97
2023-12-09T16:57:16.925Z,3.00
2023-12-09T16:59:43.968Z,6.23
2023-12-09T17:02:10.966Z,5.40
2023-12-09T17:04:38.087Z,6.20
2023-12-09T17:07:05.104Z,4.87
2023-12-09T17:09:32.346Z,4.60
2023-12-09T17:11:59.306Z,3.77
2023-12-09T17:14:26.857Z,4.37
2023-12-09T17:16:55.203Z,4.37
2023-12-09T17:19:22.505Z,4.40
2023-12-09T17:21:49.678Z,5.23
2023-12-09T17:24:16.614Z,5.70
2023-12-09T17:26:43.580Z,5.63
2023-12-09T17:29:10.475Z,7.53
2023-12-09T17:31:40.068Z,8.37
2023-12-09T17:34:10.634Z,4.80
2023-12-09T17:36:37.817Z,4.77
2023-12-09T17:39:07.434Z,4.53
2023-12-09T17:41:34.368Z,8.63
2023-12-09T17:44:01.308Z,6.10
2023-12-09T17:46:28.199Z,4.47
2023-12-09T17:48:55.672Z,4.83
2023-12-09T17:51:22.872Z,5.93
2023-12-09T17:53:49.914Z,5.33
2023-12-09T17:56:16.833Z,4.67
2023-12-09T17:58:43.716Z,5.63
2023-12-09T18:01:10.753Z,6.77
2023-12-09T18:03:37.748Z,4.43
2023-12-09T18:06:05.483Z,5.17
2023-12-09T18:08:34.267Z,3.00
2023-12-09T18:11:01.196Z,4.00
2023-12-09T18:13:28.213Z,3.60
2023-12-09T18:15:55.191Z,3.77
2023-12-09T18:18:22.495Z,4.13
2023-12-09T18:20:49.585Z,4.33
2023-12-09T18:23:16.460Z,4.13
2023-12-09T18:25:43.436Z,5.03
2023-12-09T18:28:10.336Z,3.87
2023-12-09T18:30:38.247Z,2.87
2023-12-09T18:33:05.414Z,4.37
2023-12-09T18:35:32.502Z,4.10
2023-12-09T18:38:00.407Z,5.33
2023-12-09T18:40:27.744Z,6.63
2023-12-09T18:42:54.769Z,4.90
2023-12-09T18:45:21.849Z,3.67
2023-12-09T18:47:51.281Z,3.17
2023-12-09T18:50:18.304Z,4.90
2023-12-09T18:52:45.189Z,2.57
2023-12-09T18:55:12.124Z,4.73
2023-12-09T18:57:43.862Z,4.87
2023-12-09T19:00:11.540Z,4.20
2023-12-09T19:02:38.624Z,4.60
2023-12-09T19:05:05.976Z,8.23
2023-12-09T19:07:33.042Z,4.43
2023-12-09T19:10:04.846Z,4.93
2023-12-09T19:12:33.067Z,7.50
2023-12-09T19:15:02.984Z,6.50
2023-12-09T19:17:30.137Z,4.90
2023-12-09T19:19:57.221Z,7.23
2023-12-09T19:22:24.305Z,6.00
2023-12-09T19:24:51.259Z,7.67
2023-12-09T19:27:18.281Z,6.97
2023-12-09T19:29:45.202Z,6.50
2023-12-09T19:32:13.546Z,5.70
2023-12-09T19:34:41.269Z,7.73
2023-12-09T19:37:11.069Z,8.07
2023-12-09T19:39:37.996Z,7.27
2023-12-09T19:42:05.398Z,7.33
2023-12-09T19:44:32.373Z,7.90
2023-12-09T19:46:59.714Z,10.53
2023-12-09T19:49:26.854Z,11.47
2023-12-09T19:51:53.874Z,9.37
2023-12-09T19:54:20.793Z,8.27
2023-12-09T19:56:47.707Z,7.90
2023-12-09T19:59:15.064Z,8.53
2023-12-09T20:01:42.067Z,11.07
2023-12-09T20:04:09.087Z,9.67
2023-12-09T20:06:36.592Z,8.77
2023-12-09T20:09:05.108Z,10.23
2023-12-09T20:11:32.139Z,9.73
2023-12-09T20:13:59.332Z,12.13
2023-12-09T20:16:26.426Z,11.93
2023-12-09T20:18:53.431Z,10.60
2023-12-09T20:21:20.526Z,9.73
2023-12-09T20:23:47.449Z,10.27
2023-12-09T20:26:14.365Z,9.43
2023-12-09T20:28:43.728Z,10.30
2023-12-09T20:31:13.923Z,10.37
2023-12-09T20:33:41.650Z,8.77
2023-12-09T20:36:09.208Z,13.13
2023-12-09T20:38:36.614Z,10.30
2023-12-09T20:41:03.870Z,6.43
2023-12-09T20:43:32.419Z,12.03
2023-12-09T20:46:02.347Z,10.80
2023-12-09T20:48:29.409Z,16.67
2023-12-09T20:50:56.581Z,14.87
2023-12-09T20:53:23.690Z,11.43
2023-12-09T20:55:50.664Z,8.10
2023-12-09T20:58:17.615Z,11.67
2023-12-09T21:00:44.594Z,7.63
2023-12-09T21:03:12.004Z,14.83
2023-12-09T21:05:39.022Z,10.20
2023-12-09T21:08:05.897Z,9.07
2023-12-09T21:10:32.794Z,7.60
2023-12-09T21:12:59.747Z,8.53
2023-12-09T21:15:27.366Z,6.90
2023-12-09T21:17:54.406Z,10.03
2023-12-09T21:20:21.415Z,8.93
2023-12-09T21:22:48.372Z,9.63
2023-12-09T21:25:15.504Z,7.90
2023-12-09T21:27:43.869Z,11.10
2023-12-09T21:30:11.190Z,7.07
2023-12-09T21:32:38.335Z,6.87
2023-12-09T21:35:06.267Z,10.43
2023-12-09T21:37:33.211Z,7.93
2023-12-09T21:40:00.831Z,9.97
2023-12-09T21:42:28.547Z,10.03
2023-12-09T21:44:57.680Z,9.07
2023-12-09T21:47:28.583Z,10.30
2023-12-09T21:49:56.071Z,9.20
2023-12-09T21:52:23.422Z,8.30
2023-12-09T21:54:50.695Z,11.80
2023-12-09T21:57:17.793Z,10.03
2023-12-09T21:59:44.869Z,10.70
2023-12-09T22:02:11.754Z,11.73
2023-12-09T22:04:38.771Z,12.53
2023-12-09T22:07:05.890Z,8.67
2023-12-09T22:09:32.836Z,13.13
2023-12-09T22:11:59.751Z,10.07
2023-12-09T22:14:26.743Z,8.63
2023-12-09T22:16:54.297Z,10.27
2023-12-09T22:19:21.250Z,9.27
2023-12-09T22:21:48.178Z,8.97
2023-12-09T22:24:15.162Z,9.37
2023-12-09T22:26:43.411Z,8.30
2023-12-09T22:29:10.668Z,11.17
2023-12-09T22:31:44.953Z,11.93
2023-12-09T22:34:12.176Z,8.60
2023-12-09T22:36:39.720Z,9.67
2023-12-09T22:39:12.938Z,11.70
2023-12-09T22:41:40.056Z,14.43
2023-12-09T22:44:07.204Z,10.97
2023-12-09T22:46:34.542Z,11.70
2023-12-09T22:49:02.237Z,9.67
2023-12-09T22:51:29.580Z,10.70
2023-12-09T22:53:56.587Z,10.27
2023-12-09T22:56:25.632Z,10.83
2023-12-09T22:58:55.433Z,10.17
2023-12-09T23:01:33.972Z,8.10
2023-12-09T23:04:04.181Z,10.37
2023-12-09T23:06:31.308Z,9.03
2023-12-09T23:08:58.683Z,12.60
2023-12-09T23:11:25.713Z,9.73
2023-12-09T23:13:52.611Z,9.80
2023-12-09T23:16:19.631Z,10.47
2023-12-09T23:18:46.728Z,10.20
2023-12-09T23:21:13.917Z,9.33
2023-12-09T23:23:40.842Z,8.97
2023-12-09T23:26:07.799Z,13.33
2023-12-09T23:28:34.799Z,10.37
2023-12-09T23:31:03.601Z,9.30
2023-12-09T23:33:32.379Z,11.43
2023-12-09T23:35:59.617Z,9.50
2023-12-09T23:38:26.736Z,11.30
2023-12-09T23:40:53.687Z,8.67
2023-12-09T23:43:20.620Z,10.97
2023-12-09T23:45:47.563Z,12.63
2023-12-09T23:48:18.986Z,11.00
2023-12-09T23:50:46.096Z,16.67
2023-12-09T23:53:17.215Z,10.07
2023-12-09T23:55:44.196Z,11.97
2023-12-09T23:58:11.084Z,10.60
